createdAt,value
2022-12-08T00:01:35.900Z,14.55
2022-12-08T00:04:04.585Z,14.80
2022-12-08T00:06:55.838Z,8.73
2022-12-08T00:09:24.457Z,8.32
2022-12-08T00:12:02.388Z,10.52
2022-12-08T00:14:32.426Z,7.78
2022-12-08T00:17:10.146Z,10.27
2022-12-08T00:19:40.408Z,11.68
2022-12-08T00:22:08.799Z,10.95
2022-12-08T00:24:40.670Z,13.00
2022-12-08T00:27:09.260Z,13.52
2022-12-08T00:29:38.845Z,11.35
2022-12-08T00:32:09.292Z,13.20
2022-12-08T00:34:36.024Z,13.05
2022-12-08T00:37:07.760Z,11.80
2022-12-08T00:39:34.413Z,10.43
2022-12-08T00:42:13.241Z,14.30
2022-12-08T00:44:46.928Z,12.50
2022-12-08T00:47:14.841Z,12.77
2022-12-08T00:49:42.174Z,9.80
2022-12-08T00:52:15.642Z,10.90
2022-12-08T00:54:42.251Z,9.00
2022-12-08T00:57:10.233Z,11.93
2022-12-08T00:59:36.835Z,10.05
2022-12-08T01:02:09.713Z,9.38
2022-12-08T01:04:36.581Z,10.27
2022-12-08T01:07:03.290Z,7.55
2022-12-08T01:09:29.892Z,12.05
2022-12-08T01:11:59.559Z,11.18
2022-12-08T01:14:26.797Z,13.43
2022-12-08T01:16:53.540Z,10.27
2022-12-08T01:19:22.891Z,12.13
2022-12-08T01:21:49.490Z,6.35
2022-12-08T01:24:19.652Z,13.68
2022-12-08T01:26:47.558Z,8.60
2022-12-08T01:31:49.457Z,8.65
2022-12-08T01:34:16.125Z,8.32
2022-12-08T01:36:44.535Z,14.25
2022-12-08T01:39:22.074Z,9.82
2022-12-08T01:41:48.767Z,10.00
2022-12-08T01:44:18.403Z,9.98
2022-12-08T01:46:49.573Z,8.75
2022-12-08T01:49:19.705Z,8.55
2022-12-08T01:52:03.091Z,11.88
2022-12-08T01:54:40.040Z,9.43
2022-12-08T01:57:18.323Z,10.32
2022-12-08T01:59:52.932Z,7.13
2022-12-08T02:02:22.700Z,8.93
2022-12-08T02:04:52.122Z,8.68
2022-12-08T02:07:18.951Z,8.80
2022-12-08T02:09:50.685Z,10.65
2022-12-08T02:12:17.744Z,9.85
2022-12-08T02:14:44.389Z,9.18
2022-12-08T02:17:35.254Z,9.45
2022-12-08T02:20:17.611Z,7.63
2022-12-08T02:23:27.922Z,9.15
2022-12-08T02:25:54.474Z,18.50
2022-12-08T02:28:41.817Z,12.93
2022-12-08T02:31:42.092Z,19.52
2022-12-08T02:34:21.375Z,15.90
2022-12-08T02:37:00.830Z,15.48
2022-12-08T02:39:57.003Z,17.50
2022-12-08T02:42:37.444Z,18.38
2022-12-08T02:45:14.798Z,16.25
2022-12-08T02:47:42.283Z,19.42
2022-12-08T02:50:10.186Z,17.77
2022-12-08T02:52:45.793Z,19.27
2022-12-08T02:55:24.820Z,13.90
2022-12-08T02:58:15.334Z,17.65
2022-12-08T03:01:10.697Z,15.18
2022-12-08T03:03:59.923Z,15.52
2022-12-08T03:06:40.390Z,14.50
2022-12-08T03:09:22.172Z,16.40
2022-12-08T03:12:18.565Z,15.68
2022-12-08T03:14:53.331Z,15.63
2022-12-08T03:17:24.373Z,14.82
2022-12-08T03:20:00.170Z,16.63
2022-12-08T03:22:27.882Z,15.73
2022-12-08T03:27:29.076Z,10.77
2022-12-08T03:29:58.240Z,15.50
2022-12-08T03:32:34.805Z,11.63
2022-12-08T03:35:12.563Z,12.27
2022-12-08T03:37:40.424Z,15.02
2022-12-08T03:40:16.092Z,13.48
2022-12-08T03:42:45.478Z,16.90
2022-12-08T03:45:12.096Z,11.43
2022-12-08T03:47:42.725Z,12.05
2022-12-08T03:50:09.669Z,16.80
2022-12-08T03:52:39.028Z,12.38
2022-12-08T03:55:06.202Z,14.10
2022-12-08T03:57:32.832Z,16.30
2022-12-08T03:59:59.480Z,17.17
2022-12-08T04:02:29.149Z,18.65
2022-12-08T04:04:55.786Z,16.13
2022-12-08T04:07:22.386Z,24.88
2022-12-08T04:09:49.415Z,22.73
2022-12-08T04:12:16.051Z,25.10
2022-12-08T04:14:43.330Z,25.50
2022-12-08T04:17:13.267Z,22.10
2022-12-08T04:19:41.018Z,23.15
2022-12-08T04:22:10.827Z,24.70
2022-12-08T04:24:40.140Z,25.05
2022-12-08T04:27:06.862Z,24.88
2022-12-08T04:29:33.761Z,22.85
2022-12-08T04:32:03.260Z,27.92
2022-12-08T04:34:29.870Z,26.02
2022-12-08T04:36:56.786Z,20.58
2022-12-08T04:39:23.390Z,25.02
2022-12-08T04:41:50.012Z,23.08
2022-12-08T04:44:16.628Z,30.25
2022-12-08T04:46:43.886Z,31.15
2022-12-08T04:49:10.768Z,24.27
2022-12-08T04:51:37.458Z,25.63
2022-12-08T04:54:04.182Z,27.63
2022-12-08T04:56:31.101Z,22.30
2022-12-08T04:58:57.732Z,31.17
2022-12-08T05:01:24.616Z,24.55
2022-12-08T05:03:54.447Z,31.92
2022-12-08T05:06:21.071Z,24.05
2022-12-08T05:08:50.554Z,28.08
2022-12-08T05:11:17.158Z,26.52
2022-12-08T05:13:46.693Z,33.47
2022-12-08T05:16:15.111Z,27.73
2022-12-08T05:18:42.456Z,32.65
2022-12-08T05:21:09.516Z,24.95
2022-12-08T05:23:36.582Z,30.65
2022-12-08T05:26:06.608Z,34.55
2022-12-08T05:28:42.333Z,35.40
2022-12-08T05:31:11.354Z,40.67
2022-12-08T05:33:38.031Z,40.67
2022-12-08T05:36:04.988Z,36.25
2022-12-08T05:38:31.629Z,38.40
2022-12-08T05:40:59.033Z,41.58
2022-12-08T05:43:26.915Z,39.35
2022-12-08T05:45:54.145Z,46.17
2022-12-08T05:48:20.847Z,44.80
2022-12-08T05:50:52.134Z,45.00
2022-12-08T05:53:20.203Z,45.85
2022-12-08T05:55:48.412Z,41.75
2022-12-08T05:58:21.456Z,44.38
2022-12-08T06:00:49.636Z,57.30
2022-12-08T06:03:20.585Z,46.72
2022-12-08T06:05:48.122Z,44.35
2022-12-08T06:08:19.615Z,43.90
2022-12-08T06:10:46.998Z,49.60
2022-12-08T06:13:14.510Z,40.85
2022-12-08T06:15:41.558Z,44.45
2022-12-08T06:18:11.818Z,37.05
2022-12-08T06:20:38.742Z,37.30
2022-12-08T06:23:05.381Z,44.08
2022-12-08T06:25:32.573Z,40.38
2022-12-08T06:27:59.183Z,38.17
2022-12-08T06:30:26.160Z,37.50
2022-12-08T06:32:52.870Z,32.75
2022-12-08T06:35:22.601Z,34.55
2022-12-08T06:37:51.571Z,41.17
2022-12-08T06:40:18.251Z,39.05
2022-12-08T06:42:45.169Z,42.55
2022-12-08T06:45:16.542Z,29.30
2022-12-08T06:47:43.774Z,41.38
2022-12-08T06:50:12.152Z,42.08
2022-12-08T06:52:49.358Z,32.20
2022-12-08T06:55:42.994Z,39.75
2022-12-08T06:58:09.600Z,31.75
2022-12-08T07:00:38.241Z,40.42
2022-12-08T07:03:07.689Z,41.50
2022-12-08T07:05:35.370Z,52.15
2022-12-08T07:08:08.020Z,31.42
2022-12-08T07:10:35.015Z,35.65
2022-12-08T07:13:02.162Z,33.25
2022-12-08T07:15:29.567Z,29.60
2022-12-08T07:17:59.766Z,38.90
2022-12-08T07:20:26.790Z,45.47
2022-12-08T07:22:53.859Z,45.50
2022-12-08T07:25:20.755Z,45.15
2022-12-08T07:27:50.828Z,33.90
2022-12-08T07:30:18.806Z,38.70
2022-12-08T07:32:45.891Z,48.42
2022-12-08T07:35:12.679Z,40.80
2022-12-08T07:37:39.529Z,45.38
2022-12-08T07:40:07.966Z,49.13
2022-12-08T07:42:43.739Z,40.10
2022-12-08T07:45:10.471Z,34.70
2022-12-08T07:47:37.131Z,48.17
2022-12-08T07:50:04.591Z,32.08
2022-12-08T07:52:31.422Z,31.08
2022-12-08T07:55:00.663Z,34.00
2022-12-08T07:57:27.343Z,29.80
2022-12-08T07:59:53.990Z,28.10
2022-12-08T08:02:32.673Z,36.20
2022-12-08T08:05:02.521Z,38.72
2022-12-08T08:07:31.311Z,47.88
2022-12-08T08:09:58.171Z,39.90
2022-12-08T08:12:32.073Z,52.08
2022-12-08T08:15:04.779Z,43.20
2022-12-08T08:17:31.542Z,39.40
2022-12-08T08:19:58.250Z,42.92
2022-12-08T08:22:25.861Z,31.75
2022-12-08T08:24:53.184Z,43.00
2022-12-08T08:27:22.897Z,41.60
2022-12-08T08:29:54.768Z,37.70
2022-12-08T08:32:21.699Z,35.33
2022-12-08T08:34:48.379Z,44.83
2022-12-08T08:37:15.144Z,45.85
2022-12-08T08:39:47.288Z,32.97
2022-12-08T08:42:14.221Z,41.28
2022-12-08T08:44:40.922Z,38.00
2022-12-08T08:47:07.831Z,49.55
2022-12-08T08:49:34.842Z,40.90
2022-12-08T08:52:01.493Z,36.75
2022-12-08T08:54:31.100Z,43.33
2022-12-08T08:56:58.685Z,54.92
2022-12-08T08:59:29.698Z,37.53
2022-12-08T09:01:59.088Z,45.15
2022-12-08T09:04:26.109Z,35.70
2022-12-08T09:06:55.915Z,38.90
2022-12-08T09:09:25.502Z,38.40
2022-12-08T09:11:52.162Z,46.03
2022-12-08T09:14:18.826Z,44.47
2022-12-08T09:16:45.493Z,45.63
2022-12-08T09:19:12.109Z,46.22
2022-12-08T09:21:40.507Z,35.15
2022-12-08T09:24:08.380Z,39.45
2022-12-08T09:26:35.005Z,36.50
2022-12-08T09:29:07.873Z,37.15
2022-12-08T09:31:34.538Z,34.50
2022-12-08T09:34:01.267Z,36.08
2022-12-08T09:36:27.989Z,34.53
2022-12-08T09:38:55.423Z,31.35
2022-12-08T09:41:40.282Z,42.25
2022-12-08T09:44:33.279Z,37.20
2022-12-08T09:47:03.639Z,35.53
2022-12-08T09:49:47.632Z,30.85
2022-12-08T09:52:22.616Z,30.98
2022-12-08T09:54:50.721Z,32.75
2022-12-08T09:57:21.154Z,42.67
2022-12-08T10:00:03.520Z,33.63
2022-12-08T10:02:40.011Z,37.72
2022-12-08T10:05:09.920Z,34.28
2022-12-08T10:07:47.344Z,33.58
2022-12-08T10:10:51.364Z,31.17
2022-12-08T10:13:25.713Z,31.33
2022-12-08T10:16:09.014Z,32.95
2022-12-08T10:18:37.833Z,27.92
2022-12-08T10:21:26.495Z,35.50
2022-12-08T10:23:58.838Z,37.42
2022-12-08T10:26:28.559Z,44.63
2022-12-08T10:29:04.731Z,34.67
2022-12-08T10:31:33.316Z,32.30
2022-12-08T10:34:13.163Z,34.10
2022-12-08T10:36:50.124Z,27.52
2022-12-08T10:39:40.531Z,28.05
2022-12-08T10:42:16.699Z,28.77
2022-12-08T10:45:01.034Z,28.33
2022-12-08T10:47:35.123Z,30.63
2022-12-08T10:50:24.486Z,27.92
2022-12-08T10:53:32.065Z,29.70
2022-12-08T10:56:02.417Z,25.95
2022-12-08T10:58:43.698Z,27.58
2022-12-08T11:01:34.361Z,26.20
2022-12-08T11:04:34.464Z,30.98
2022-12-08T11:07:02.707Z,29.60
2022-12-08T11:09:41.286Z,23.48
2022-12-08T11:12:16.652Z,32.17
2022-12-08T11:14:43.391Z,30.05
2022-12-08T11:17:32.818Z,35.90
2022-12-08T11:20:20.203Z,29.85
2022-12-08T11:22:57.051Z,22.48
2022-12-08T11:25:33.025Z,25.58
2022-12-08T11:28:01.965Z,28.15
2022-12-08T11:30:48.698Z,30.67
2022-12-08T11:33:28.659Z,32.95
2022-12-08T11:36:10.447Z,30.90
2022-12-08T11:38:52.011Z,31.45
2022-12-08T11:41:31.250Z,32.90
2022-12-08T11:44:05.275Z,37.08
2022-12-08T11:49:18.919Z,30.30
2022-12-08T11:52:07.137Z,33.67
2022-12-08T11:55:05.589Z,31.10
2022-12-08T11:57:36.129Z,29.33
2022-12-08T12:00:08.658Z,32.58
2022-12-08T12:02:45.512Z,27.95
2022-12-08T12:08:53.217Z,28.13
2022-12-08T12:12:17.689Z,28.60
2022-12-08T12:14:50.514Z,24.00
2022-12-08T12:17:51.856Z,29.90
2022-12-08T12:20:25.581Z,33.60
2022-12-08T12:23:34.684Z,33.85
2022-12-08T12:26:06.015Z,26.35
2022-12-08T12:29:03.110Z,28.95
2022-12-08T12:31:35.637Z,27.85
2022-12-08T12:34:27.171Z,29.48
2022-12-08T12:37:08.363Z,34.53
2022-12-08T12:39:48.505Z,26.63
2022-12-08T12:42:45.213Z,32.47
2022-12-08T12:45:23.920Z,30.75
2022-12-08T12:47:56.207Z,31.90
2022-12-08T12:50:50.320Z,33.83
2022-12-08T12:53:20.353Z,34.20
2022-12-08T12:56:05.148Z,32.55
2022-12-08T12:58:31.686Z,36.63
2022-12-08T13:01:12.247Z,31.30
2022-12-08T13:04:07.737Z,40.65
2022-12-08T13:06:53.601Z,36.92
2022-12-08T13:09:33.600Z,37.45
2022-12-08T13:12:12.038Z,54.65
2022-12-08T13:15:04.720Z,37.70
2022-12-08T13:17:36.724Z,35.03
2022-12-08T13:20:07.783Z,37.95
2022-12-08T13:23:15.652Z,38.63
2022-12-08T13:25:51.195Z,30.58
2022-12-08T13:28:28.108Z,41.08
2022-12-08T13:31:48.361Z,43.63
2022-12-08T13:34:55.108Z,32.80
2022-12-08T13:37:55.179Z,30.30
2022-12-08T13:41:33.758Z,27.60
2022-12-08T13:48:26.611Z,34.42
2022-12-08T13:55:12.256Z,31.80
2022-12-08T13:57:14.621Z,32.90
2022-12-08T13:59:45.693Z,31.23
2022-12-08T14:02:46.857Z,33.25
2022-12-08T14:05:19.069Z,37.30
2022-12-08T14:07:58.126Z,31.60
2022-12-08T14:10:30.615Z,30.38
2022-12-08T14:13:07.316Z,31.17
2022-12-08T14:15:40.045Z,30.08
2022-12-08T14:18:34.918Z,29.25
2022-12-08T14:21:21.874Z,26.73
2022-12-08T14:23:52.389Z,29.48
2022-12-08T14:26:26.052Z,33.28
2022-12-08T14:28:56.696Z,31.52
2022-12-08T14:31:24.331Z,31.30
2022-12-08T14:36:29.382Z,27.75
2022-12-08T14:38:59.584Z,35.67
2022-12-08T14:41:38.137Z,32.60
2022-12-08T14:44:24.822Z,23.25
2022-12-08T14:47:08.668Z,33.75
2022-12-08T14:49:50.777Z,31.92
2022-12-08T14:52:18.728Z,33.88
2022-12-08T14:54:49.073Z,31.63
2022-12-08T14:57:19.362Z,37.28
2022-12-08T14:59:48.302Z,29.60
2022-12-08T15:02:22.224Z,26.08
2022-12-08T15:05:12.472Z,22.77
2022-12-08T15:07:57.596Z,8.48
2022-12-08T15:10:31.042Z,7.50
2022-12-08T15:13:09.999Z,7.72
2022-12-08T15:15:58.288Z,7.90
2022-12-08T15:18:42.170Z,12.20
2022-12-08T15:21:12.839Z,11.05
2022-12-08T15:23:52.173Z,10.48
2022-12-08T15:26:30.969Z,11.40
2022-12-08T15:29:14.447Z,12.82
2022-12-08T15:31:41.182Z,13.82
2022-12-08T15:34:07.815Z,15.75
2022-12-08T15:36:47.759Z,14.63
2022-12-08T15:39:38.508Z,19.38
2022-12-08T15:42:18.861Z,13.00
2022-12-08T15:44:46.061Z,13.77
2022-12-08T15:47:18.348Z,17.40
2022-12-08T15:49:46.700Z,24.75
2022-12-08T15:52:19.306Z,17.65
2022-12-08T15:54:54.484Z,21.25
2022-12-08T16:00:53.513Z,17.95
2022-12-08T16:09:19.463Z,19.48
2022-12-08T16:12:07.274Z,18.38
2022-12-08T16:17:22.651Z,16.65
2022-12-08T16:19:58.448Z,17.30
2022-12-08T16:25:22.385Z,12.48
2022-12-08T16:28:23.363Z,14.32
2022-12-08T16:30:52.818Z,16.88
2022-12-08T16:33:19.894Z,19.23
2022-12-08T16:35:46.697Z,22.92
2022-12-08T16:38:19.342Z,20.85
2022-12-08T16:41:13.793Z,23.20
2022-12-08T16:43:40.504Z,23.65
2022-12-08T16:46:07.223Z,23.95
2022-12-08T16:48:33.859Z,20.65
2022-12-08T16:51:03.156Z,27.30
2022-12-08T16:53:38.533Z,29.23
2022-12-08T16:56:31.945Z,31.83
2022-12-08T16:59:02.960Z,23.42
2022-12-08T17:01:29.996Z,13.77
2022-12-08T17:04:29.231Z,14.23
2022-12-08T17:06:43.364Z,14.88
2022-12-08T17:09:10.036Z,13.95
2022-12-08T17:11:42.984Z,12.35
2022-12-08T17:14:10.446Z,13.52
2022-12-08T17:16:37.117Z,13.57
2022-12-08T17:19:04.252Z,14.35
2022-12-08T17:21:30.859Z,21.33
2022-12-08T17:23:57.471Z,21.58
2022-12-08T17:26:26.638Z,21.40
2022-12-08T17:29:01.583Z,28.75
2022-12-08T17:31:30.566Z,17.42
2022-12-08T17:34:10.435Z,19.85
2022-12-08T17:36:37.321Z,21.33
2022-12-08T17:39:04.259Z,18.73
2022-12-08T17:41:31.407Z,23.67
2022-12-08T17:43:59.827Z,23.83
2022-12-08T17:46:29.431Z,24.38
2022-12-08T17:48:59.028Z,19.38
2022-12-08T17:51:25.695Z,19.40
2022-12-08T17:53:52.391Z,21.75
2022-12-08T17:56:21.393Z,25.77
2022-12-08T17:58:54.020Z,23.55
2022-12-08T18:01:21.894Z,23.15
2022-12-08T18:03:48.616Z,26.17
2022-12-08T18:06:19.301Z,28.33
2022-12-08T18:08:46.073Z,24.23
2022-12-08T18:11:16.042Z,22.88
2022-12-08T18:13:42.720Z,23.95
2022-12-08T18:16:09.560Z,26.67
2022-12-08T18:18:38.544Z,23.00
2022-12-08T18:21:08.155Z,26.27
2022-12-08T18:23:37.654Z,30.10
2022-12-08T18:26:05.990Z,25.45
2022-12-08T18:28:36.056Z,24.40
2022-12-08T18:31:16.713Z,26.65
2022-12-08T18:33:45.860Z,23.50
2022-12-08T18:36:23.090Z,27.02
2022-12-08T18:38:50.191Z,20.75
2022-12-08T18:41:31.732Z,25.48
2022-12-08T18:44:05.182Z,26.27
2022-12-08T18:46:34.257Z,25.02
2022-12-08T18:49:03.532Z,22.80
2022-12-08T18:51:30.640Z,28.45
2022-12-08T18:53:58.414Z,25.25
2022-12-08T18:59:02.830Z,24.95
2022-12-08T19:01:31.924Z,30.50
2022-12-08T19:06:48.353Z,26.42
2022-12-08T19:09:15.934Z,29.52
2022-12-08T19:11:43.362Z,28.42
2022-12-08T19:14:13.207Z,34.72
2022-12-08T19:16:39.887Z,30.75
2022-12-08T19:19:06.544Z,29.65
2022-12-08T19:21:33.841Z,32.30
2022-12-08T19:24:00.686Z,37.58
2022-12-08T19:26:31.970Z,40.58
2022-12-08T19:29:01.607Z,51.83
2022-12-08T19:31:31.773Z,47.75
2022-12-08T19:34:04.195Z,52.28
2022-12-08T19:36:35.518Z,43.88
2022-12-08T19:39:23.830Z,39.72
2022-12-08T19:42:14.925Z,41.08
2022-12-08T19:44:53.826Z,45.67
2022-12-08T19:47:28.411Z,45.50
2022-12-08T19:50:15.818Z,51.63
2022-12-08T19:52:43.480Z,49.22
2022-12-08T19:55:14.059Z,46.20
2022-12-08T19:57:49.534Z,43.17
2022-12-08T20:00:16.884Z,43.28
2022-12-08T20:02:49.874Z,35.67
2022-12-08T20:07:23.784Z,35.75
2022-12-08T20:09:50.281Z,42.83
2022-12-08T20:12:16.754Z,30.90
2022-12-08T20:15:19.450Z,33.00
2022-12-08T20:17:48.719Z,34.85
2022-12-08T20:20:15.478Z,34.67
2022-12-08T20:22:43.139Z,32.80
2022-12-08T20:25:13.575Z,31.92
2022-12-08T20:27:40.214Z,33.20
2022-12-08T20:30:16.521Z,38.65
2022-12-08T20:32:46.501Z,31.23
2022-12-08T20:35:13.190Z,34.80
2022-12-08T20:37:39.665Z,35.90
2022-12-08T20:40:18.362Z,38.50
2022-12-08T20:42:44.954Z,37.33
2022-12-08T20:45:14.512Z,40.33
2022-12-08T20:47:41.038Z,35.15
2022-12-08T20:50:08.063Z,30.38
2022-12-08T20:52:35.378Z,35.95
2022-12-08T20:55:11.161Z,37.95
2022-12-08T20:57:37.747Z,34.60
2022-12-08T21:00:05.426Z,41.45
2022-12-08T21:02:33.093Z,35.63
2022-12-08T21:04:59.818Z,31.23
2022-12-08T21:07:26.387Z,29.38
2022-12-08T21:11:36.577Z,37.55
2022-12-08T21:15:24.117Z,34.88
2022-12-08T21:17:50.844Z,34.88
2022-12-08T21:20:17.468Z,34.15
2022-12-08T21:22:44.096Z,37.20
2022-12-08T21:25:11.119Z,32.35
2022-12-08T21:30:15.042Z,30.90
2022-12-08T21:32:47.941Z,37.22
2022-12-08T21:35:14.890Z,34.72
2022-12-08T21:37:41.406Z,30.92
2022-12-08T21:40:08.569Z,33.25
2022-12-08T21:42:44.497Z,33.70
2022-12-08T21:45:12.242Z,30.55
2022-12-08T21:47:39.049Z,30.60
2022-12-08T21:50:06.566Z,41.65
2022-12-08T21:52:42.443Z,44.65
2022-12-08T21:55:09.772Z,36.38
2022-12-08T21:57:36.496Z,33.55
2022-12-08T22:02:02.554Z,29.75
2022-12-08T22:04:29.251Z,42.78
2022-12-08T22:06:55.788Z,32.53
2022-12-08T22:09:22.423Z,31.08
2022-12-08T22:11:52.704Z,22.30
2022-12-08T22:14:19.329Z,41.47
2022-12-08T22:16:46.099Z,51.90
2022-12-08T22:19:15.383Z,37.88
2022-12-08T22:21:42.393Z,41.53
2022-12-08T22:24:09.049Z,43.00
2022-12-08T22:26:38.934Z,35.10
2022-12-08T22:29:05.614Z,44.53
2022-12-08T22:31:35.287Z,33.25
2022-12-08T22:34:08.331Z,40.78
2022-12-08T22:36:41.263Z,31.77
2022-12-08T22:39:09.552Z,42.15
2022-12-08T22:41:41.976Z,43.58
2022-12-08T22:44:09.048Z,45.33
2022-12-08T22:46:35.921Z,39.97
2022-12-08T22:49:05.802Z,46.05
2022-12-08T22:51:38.739Z,52.03
2022-12-08T22:54:06.483Z,40.63
2022-12-08T22:58:59.463Z,43.17
2022-12-08T23:01:29.075Z,35.42
2022-12-08T23:03:56.555Z,41.88
2022-12-08T23:06:27.972Z,52.45
2022-12-08T23:08:58.538Z,35.78
2022-12-08T23:11:26.664Z,33.25
2022-12-08T23:14:01.043Z,36.30
2022-12-08T23:16:27.704Z,30.38
2022-12-08T23:18:55.021Z,33.92
2022-12-08T23:21:23.409Z,31.13
2022-12-08T23:23:50.053Z,33.60
2022-12-08T23:26:27.614Z,34.92
2022-12-08T23:28:54.529Z,36.92
2022-12-08T23:31:31.479Z,31.38
2022-12-08T23:34:01.405Z,43.03
2022-12-08T23:36:34.427Z,33.83
2022-12-08T23:39:00.936Z,36.67
2022-12-08T23:41:28.061Z,30.17
2022-12-08T23:43:54.571Z,34.72
2022-12-08T23:46:21.871Z,37.05
2022-12-08T23:48:58.757Z,37.75
2022-12-08T23:51:28.732Z,35.55
2022-12-08T23:53:55.309Z,30.08
2022-12-08T23:56:24.373Z,30.67
2022-12-08T23:58:57.247Z,23.02
